Provincetown Municipal Airport

Airport
ICAO code: 
KPVC
Summary
ICAO Region: 
NAM
Territory: 
Location: 
Provincetown, Massachusetts,
Coordinates: 
Aerial View: 
42° 4' 37.457" N, 70° 13' 2.837" W
Airport BS: 
Bird Strike
Airport WX: 
Cumulonimbus
Metar
Observation
KPVC 040656Z AUTO 29013KT 10SM CLR 02/M07 A3005 RMK AO2 SLP175 T00171067 FZRANO
Station
Provincetown, Provincetown Municipal Airport
Date/Time
2021-12-04 06:56:00
Wind direction
290°
Wind speed
13 kts
Lowest cloud amount
n/a
Temperature
1.7°C
Dew point
-6.7°C
Humidity
53%
Weather condition
n/a

Description

Provincetown Municipal Airport is a public airport located at the end of Cape Cod, 3 km northwest of the central business district of Provincetown, a town in Barnstable County, Massachusetts.

Climatology

Humid continental climate with a maritime influence (Köppen climate classification Dfa/Cfa) - characterized by four seasons: cold, windy, snowy winters, mild springs, hot, humid summers, and crisp and relatively short autumns. Precipitation reaches its lowest in January and February and peaks in summer and latter half of spring. The surrounding ocean has the effect of delaying the onset of the seasons keeping spring temperatures cooler and fall temperatures warmer than the rest of the state.

Runways

Designator Length Width Surface Rops
7/25 1067 30 ASP No/No
Airport map: 
Aerial View: 

SKYbrary Partners:

Safety knowledge contributed by: